Terminal Aerodrome Forecast
Issued by NWS Sioux Falls, SD

Home | Current Version | Previous Version | Text Only | Print | Product List | Glossary On
Versions: 1 2 3 4 5 6 7 8 9 10 11 12 13 14 15 16 17 18
395
FTUS43 KFSD 202320
TAFFSD
TAF
KFSD 202320Z 2100/2124 09009KT P6SM SCT250
     FM211100 12008KT P6SM VCTS SCT050CB BKN100
      TEMPO 2111/2114 -TSRA
     FM211400 15009KT P6SM SCT120 BKN200
     FM211800 17009KT P6SM SCT200=

USA.gov is the U.S. government's official web portal to all federal, state and local government web resources and services.